createdAt,value
2022-09-12T00:01:07.989Z,101123.28
2022-09-12T00:03:35.672Z,101121.88
2022-09-12T00:06:13.042Z,101122.84
2022-09-12T00:08:40.130Z,101120.16
2022-09-12T00:11:10.411Z,101132.75
2022-09-12T00:13:41.819Z,101123.88
2022-09-12T00:16:20.813Z,101117.59
2022-09-12T00:18:48.214Z,101125.03
2022-09-12T00:21:16.885Z,101122.31
2022-09-12T00:23:44.153Z,101125.19
2022-09-12T00:26:11.367Z,101124.47
2022-09-12T00:28:40.621Z,101126.50
2022-09-12T00:31:11.940Z,101124.94
2022-09-12T00:33:39.540Z,101125.91
2022-09-12T00:36:14.975Z,101118.94
2022-09-12T00:38:43.952Z,101125.34
2022-09-12T00:41:19.271Z,101123.81
2022-09-12T00:43:50.651Z,101128.69
2022-09-12T00:46:29.785Z,101129.69
2022-09-12T00:49:48.531Z,101120.97
2022-09-12T00:52:26.794Z,101123.28
2022-09-12T00:55:06.284Z,101117.16
2022-09-12T00:57:38.417Z,101112.13
2022-09-12T01:00:20.685Z,101115.00
2022-09-12T01:02:57.272Z,101116.88
2022-09-12T01:05:26.731Z,101116.88
2022-09-12T01:07:56.567Z,101111.75
2022-09-12T01:10:24.246Z,101107.16
2022-09-12T01:12:51.817Z,101107.16
2022-09-12T01:15:18.812Z,101106.03
2022-09-12T01:18:17.927Z,101110.44
2022-09-12T01:21:21.979Z,101109.59
2022-09-12T01:27:52.239Z,101103.16
2022-09-12T01:30:23.517Z,101102.28
2022-09-12T01:33:33.652Z,101102.47
2022-09-12T01:36:34.706Z,101105.47
2022-09-12T01:39:18.386Z,101103.72
2022-09-12T01:42:26.336Z,101104.19
2022-09-12T01:51:39.957Z,101104.19
2022-09-12T01:59:49.044Z,101107.31
2022-09-12T02:02:40.463Z,101105.59
2022-09-12T02:05:21.751Z,101098.63
2022-09-12T02:07:54.196Z,101092.59
2022-09-12T02:10:30.379Z,101092.03
2022-09-12T02:13:07.728Z,101088.75
2022-09-12T02:15:43.939Z,101095.50
2022-09-12T02:18:18.038Z,101092.78
2022-09-12T02:20:49.294Z,101097.34
2022-09-12T02:23:26.905Z,101089.50
2022-09-12T02:26:00.134Z,101094.22
2022-09-12T02:28:33.612Z,101087.22
2022-09-12T02:31:32.814Z,101087.81
2022-09-12T02:34:11.540Z,101082.53
2022-09-12T02:37:25.962Z,101091.94
2022-09-12T02:39:56.072Z,101082.41
2022-09-12T02:42:24.335Z,101091.50
2022-09-12T02:44:54.778Z,101094.22
2022-09-12T02:47:44.236Z,101088.81
2022-09-12T02:50:12.094Z,101091.50
2022-09-12T02:52:40.683Z,101083.53
2022-09-12T02:55:11.656Z,101087.22
2022-09-12T02:57:38.988Z,101084.38
2022-09-12T03:00:08.229Z,101085.53
2022-09-12T03:02:59.991Z,101084.97
2022-09-12T03:05:45.605Z,101088.25
2022-09-12T03:08:42.025Z,101086.81
2022-09-12T03:11:31.495Z,101087.09
2022-09-12T03:14:47.295Z,101094.97
2022-09-12T03:17:48.886Z,101090.53
2022-09-12T03:20:51.150Z,101090.38
2022-09-12T03:23:38.054Z,101099.94
2022-09-12T03:26:21.247Z,101093.81
2022-09-12T03:28:49.794Z,101101.38
2022-09-12T03:31:19.238Z,101097.22
2022-09-12T03:33:46.569Z,101099.94
2022-09-12T03:36:20.405Z,101098.97
2022-09-12T03:38:47.853Z,101095.69
2022-09-12T03:41:15.095Z,101105.63
2022-09-12T03:43:42.249Z,101108.22
2022-09-12T03:46:09.676Z,101103.81
2022-09-12T03:48:37.098Z,101107.66
2022-09-12T03:51:07.809Z,101100.63
2022-09-12T03:53:35.257Z,101098.47
2022-09-12T03:56:12.552Z,101101.47
2022-09-12T03:58:39.799Z,101103.47
2022-09-12T04:01:12.873Z,101103.59
2022-09-12T04:03:45.514Z,101098.34
2022-09-12T04:06:15.620Z,101102.00
2022-09-12T04:08:44.330Z,101104.88
2022-09-12T04:11:14.674Z,101097.59
2022-09-12T04:13:44.735Z,101104.03
2022-09-12T04:16:14.507Z,101108.00
2022-09-12T04:18:42.096Z,101108.88
2022-09-12T04:21:14.076Z,101112.72
2022-09-12T04:23:41.099Z,101111.88
2022-09-12T04:26:08.610Z,101108.53
2022-09-12T04:28:37.737Z,101114.28
2022-09-12T04:31:09.009Z,101114.28
2022-09-12T04:33:36.683Z,101116.09
2022-09-12T04:36:07.029Z,101122.53
2022-09-12T04:38:36.161Z,101118.97
2022-09-12T04:41:22.112Z,101125.38
2022-09-12T04:43:58.902Z,101121.09
2022-09-12T04:46:26.870Z,101122.22
2022-09-12T04:48:56.983Z,101125.34
2022-09-12T04:51:28.208Z,101130.31
2022-09-12T04:54:00.299Z,101134.16
2022-09-12T04:56:28.542Z,101133.44
2022-09-12T04:58:59.042Z,101132.72
2022-09-12T05:01:28.661Z,101129.28
2022-09-12T05:03:56.836Z,101133.84
2022-09-12T05:06:28.130Z,101126.84
2022-09-12T05:08:56.558Z,101128.00
2022-09-12T05:11:41.193Z,101137.94
2022-09-12T05:14:14.230Z,101139.78
2022-09-12T05:16:41.387Z,101145.94
2022-09-12T05:19:11.239Z,101143.09
2022-09-12T05:21:38.880Z,101146.69
2022-09-12T05:24:06.727Z,101152.22
2022-09-12T05:26:33.753Z,101152.34
2022-09-12T05:29:01.368Z,101153.06
2022-09-12T05:31:28.956Z,101158.34
2022-09-12T05:33:57.230Z,101155.50
2022-09-12T05:36:30.460Z,101160.53
2022-09-12T05:39:00.193Z,101152.13
2022-09-12T05:41:34.022Z,101150.00
2022-09-12T05:44:07.058Z,101155.41
2022-09-12T05:46:40.814Z,101155.28
2022-09-12T05:49:11.595Z,101161.53
2022-09-12T05:51:45.198Z,101169.28
2022-09-12T05:54:15.412Z,101168.16
2022-09-12T05:56:44.205Z,101182.13
2022-09-12T05:59:22.279Z,101180.84
2022-09-12T06:01:49.807Z,101173.28
2022-09-12T06:04:17.835Z,101172.31
2022-09-12T06:06:46.366Z,101175.72
2022-09-12T06:09:16.285Z,101176.31
2022-09-12T06:11:45.408Z,101177.03
2022-09-12T06:14:16.008Z,101185.75
2022-09-12T06:16:43.261Z,101182.75
2022-09-12T06:19:20.406Z,101186.91
2022-09-12T06:21:49.759Z,101182.09
2022-09-12T06:24:18.817Z,101187.13
2022-09-12T06:26:50.414Z,101189.66
2022-09-12T06:29:19.477Z,101191.25
2022-09-12T06:31:46.823Z,101179.13
2022-09-12T06:34:16.415Z,101183.28
2022-09-12T06:36:46.879Z,101174.88
2022-09-12T06:39:22.688Z,101180.88
2022-09-12T06:41:52.122Z,101184.16
2022-09-12T06:44:30.637Z,101185.59
2022-09-12T06:46:58.763Z,101182.59
2022-09-12T06:49:25.757Z,101185.75
2022-09-12T06:51:53.020Z,101186.59
2022-09-12T06:54:20.521Z,101178.31
2022-09-12T06:56:47.833Z,101181.59
2022-09-12T06:59:15.075Z,101172.19
2022-09-12T07:01:42.344Z,101172.75
2022-09-12T07:04:10.638Z,101167.91
2022-09-12T07:06:41.481Z,101172.75
2022-09-12T07:09:12.961Z,101178.88
2022-09-12T07:11:42.382Z,101174.75
2022-09-12T07:14:14.048Z,101176.31
2022-09-12T07:16:41.913Z,101171.47
2022-09-12T07:19:10.166Z,101173.03
2022-09-12T07:21:40.303Z,101179.44
2022-09-12T07:24:10.500Z,101172.03
2022-09-12T07:26:40.534Z,101176.31
2022-09-12T07:29:35.758Z,101172.19
2022-09-12T07:32:05.605Z,101184.00
2022-09-12T07:34:32.846Z,101180.19
2022-09-12T07:36:59.805Z,101181.59
2022-09-12T07:39:26.742Z,101180.47
2022-09-12T07:41:53.776Z,101181.03
2022-09-12T07:44:22.060Z,101181.44
2022-09-12T07:46:50.518Z,101181.00
2022-09-12T07:49:17.421Z,101185.00
2022-09-12T07:51:44.413Z,101183.56
2022-09-12T07:54:11.969Z,101185.66
2022-09-12T07:56:39.626Z,101186.81
2022-09-12T07:59:08.102Z,101177.66
2022-09-12T08:01:35.375Z,101192.22
2022-09-12T08:04:03.495Z,101192.78
2022-09-12T08:06:32.198Z,101182.47
2022-09-12T08:09:00.155Z,101185.56
2022-09-12T08:11:29.266Z,101187.38
2022-09-12T08:13:58.059Z,101196.41
2022-09-12T08:16:31.184Z,101176.81
2022-09-12T08:19:00.677Z,101179.94
2022-09-12T08:21:33.077Z,101182.91
2022-09-12T08:24:05.979Z,101183.16
2022-09-12T08:26:34.142Z,101189.69
2022-09-12T08:29:01.568Z,101187.22
2022-09-12T08:31:29.448Z,101191.03
2022-09-12T08:33:58.334Z,101191.13
2022-09-12T08:36:28.221Z,101197.66
2022-09-12T08:39:06.043Z,101199.66
2022-09-12T08:41:35.181Z,101193.88
2022-09-12T08:44:43.776Z,101191.25
2022-09-12T08:47:27.701Z,101194.22
2022-09-12T08:50:10.008Z,101201.78
2022-09-12T08:53:03.388Z,101195.72
2022-09-12T08:55:35.847Z,101191.88
2022-09-12T08:58:24.495Z,101196.16
2022-09-12T09:01:07.344Z,101195.53
2022-09-12T09:03:52.806Z,101190.00
2022-09-12T09:07:05.453Z,101193.78
2022-09-12T09:09:50.864Z,101192.84
2022-09-12T09:12:43.086Z,101187.00
2022-09-12T09:15:43.875Z,101179.81
2022-09-12T09:18:30.480Z,101184.63
2022-09-12T09:21:09.574Z,101183.69
2022-09-12T09:23:47.148Z,101181.00
2022-09-12T09:26:26.767Z,101188.53
2022-09-12T09:29:06.940Z,101180.06
2022-09-12T09:31:40.268Z,101179.75
2022-09-12T09:34:20.139Z,101181.97
2022-09-12T09:37:20.971Z,101183.72
2022-09-12T09:40:24.475Z,101174.56
2022-09-12T09:43:02.980Z,101169.16
2022-09-12T09:45:30.187Z,101165.59
2022-09-12T09:48:08.147Z,101163.91
2022-09-12T09:50:35.198Z,101161.22
2022-09-12T09:53:03.885Z,101163.09
2022-09-12T09:55:39.323Z,101153.38
2022-09-12T09:58:06.550Z,101155.44
2022-09-12T10:00:38.199Z,101157.13
2022-09-12T10:03:05.101Z,101164.50
2022-09-12T10:05:37.198Z,101154.28
2022-09-12T10:08:07.519Z,101154.28
2022-09-12T10:10:34.667Z,101144.91
2022-09-12T10:13:24.922Z,101143.19
2022-09-12T10:16:17.305Z,101145.91
2022-09-12T10:18:44.885Z,101140.09
2022-09-12T10:21:16.860Z,101140.25
2022-09-12T10:23:45.224Z,101147.63
2022-09-12T10:26:19.562Z,101140.41
2022-09-12T10:28:56.292Z,101137.31
2022-09-12T10:31:33.170Z,101133.38
2022-09-12T10:34:02.466Z,101124.31
2022-09-12T10:36:38.777Z,101122.44
2022-09-12T10:39:06.871Z,101122.41
2022-09-12T10:41:40.991Z,101121.38
2022-09-12T10:44:19.291Z,101112.09
2022-09-12T10:46:46.821Z,101125.38
2022-09-12T10:49:24.329Z,101118.19
2022-09-12T10:51:54.384Z,101116.59
2022-09-12T10:54:27.939Z,101117.56
2022-09-12T10:57:18.327Z,101117.53
2022-09-12T10:59:45.303Z,101119.41
2022-09-12T11:02:39.355Z,101117.66
2022-09-12T11:05:22.818Z,101111.63
2022-09-12T11:08:01.277Z,101106.75
2022-09-12T11:11:11.667Z,101113.03
2022-09-12T11:14:19.237Z,101104.25
2022-09-12T11:17:24.974Z,101107.47
2022-09-12T11:20:34.084Z,101109.47
2022-09-12T11:23:07.283Z,101102.44
2022-09-12T11:25:43.641Z,101104.44
2022-09-12T11:28:38.541Z,101099.25
2022-09-12T11:31:44.619Z,101092.41
2022-09-12T11:34:55.262Z,101099.56
2022-09-12T11:37:53.047Z,101092.31
2022-09-12T11:40:35.084Z,101095.34
2022-09-12T11:43:30.937Z,101092.88
2022-09-12T11:46:09.642Z,101083.28
2022-09-12T11:48:59.515Z,101088.56
2022-09-12T11:51:40.407Z,101079.97
2022-09-12T11:54:55.736Z,101075.59
2022-09-12T11:57:41.617Z,101071.06
2022-09-12T12:00:23.455Z,101064.94
2022-09-12T12:02:59.229Z,101067.31
2022-09-12T12:05:45.179Z,101063.41
2022-09-12T12:08:12.468Z,101063.31
2022-09-12T12:10:50.540Z,101059.22
2022-09-12T12:13:27.818Z,101052.13
2022-09-12T12:16:07.279Z,101049.38
2022-09-12T12:18:38.931Z,101053.03
2022-09-12T12:21:38.433Z,101050.16
2022-09-12T12:24:08.785Z,101041.16
2022-09-12T12:29:45.883Z,101050.81
2022-09-12T12:32:22.135Z,101038.16
2022-09-12T12:34:49.163Z,101039.72
2022-09-12T12:37:18.887Z,101041.91
2022-09-12T12:39:50.109Z,101031.31
2022-09-12T12:42:37.506Z,101039.00
2022-09-12T12:45:26.996Z,101030.78
2022-09-12T12:48:08.332Z,101033.13
2022-09-12T12:50:35.719Z,101039.72
2022-09-12T12:53:17.418Z,101032.59
2022-09-12T12:55:44.269Z,101034.56
2022-09-12T12:58:32.515Z,101029.53
2022-09-12T13:01:14.762Z,101020.00
2022-09-12T13:03:55.390Z,101012.94
2022-09-12T13:06:36.684Z,101010.28
2022-09-12T13:09:19.271Z,101008.25
2022-09-12T13:11:47.129Z,101006.03
2022-09-12T13:14:38.727Z,101001.88
2022-09-12T13:17:08.440Z,100994.91
2022-09-12T13:19:38.255Z,100990.31
2022-09-12T13:22:10.454Z,100990.97
2022-09-12T13:24:54.593Z,100990.53
2022-09-12T13:27:25.510Z,100989.06
2022-09-12T13:30:18.651Z,100985.72
2022-09-12T13:32:45.714Z,100973.03
2022-09-12T13:35:28.339Z,100976.03
2022-09-12T13:38:18.947Z,100974.00
2022-09-12T13:41:10.202Z,100978.84
2022-09-12T13:43:44.507Z,100967.72
2022-09-12T13:46:17.948Z,100963.25
2022-09-12T13:48:45.587Z,100962.19
2022-09-12T13:51:26.813Z,100963.25
2022-09-12T13:53:58.606Z,100957.75
2022-09-12T13:56:26.781Z,100956.09
2022-09-12T13:59:00.874Z,100947.03
2022-09-12T14:01:48.766Z,100943.03
2022-09-12T14:04:44.052Z,100938.56
2022-09-12T14:07:24.321Z,100937.31
2022-09-12T14:09:59.967Z,100932.66
2022-09-12T14:12:31.294Z,100923.16
2022-09-12T14:14:58.679Z,100924.47
2022-09-12T14:17:39.643Z,100918.34
2022-09-12T14:20:18.824Z,100909.69
2022-09-12T14:22:50.908Z,100911.19
2022-09-12T14:25:22.343Z,100911.75
2022-09-12T14:27:54.301Z,100916.25
2022-09-12T14:30:32.089Z,100905.44
2022-09-12T14:33:11.060Z,100903.34
2022-09-12T14:35:51.124Z,100898.66
2022-09-12T14:38:17.976Z,100898.84
2022-09-12T14:40:49.017Z,100898.41
2022-09-12T14:43:26.277Z,100906.91
2022-09-12T14:45:59.544Z,100908.81
2022-09-12T14:48:31.856Z,100897.97
2022-09-12T14:50:59.253Z,100898.63
2022-09-12T14:53:32.941Z,100899.63
2022-09-12T14:56:12.857Z,100894.53
2022-09-12T14:58:41.305Z,100890.94
2022-09-12T15:01:08.347Z,100886.44
2022-09-12T15:03:53.297Z,100888.53
2022-09-12T15:06:34.153Z,100881.97
2022-09-12T15:09:12.302Z,100880.91
2022-09-12T15:11:39.711Z,100880.66
2022-09-12T15:14:13.277Z,100882.56
2022-09-12T15:16:40.476Z,100880.22
2022-09-12T15:19:07.454Z,100872.41
2022-09-12T15:21:34.393Z,100874.72
2022-09-12T15:24:01.370Z,100873.66
2022-09-12T15:26:31.592Z,100876.63
2022-09-12T15:28:58.575Z,100874.06
2022-09-12T15:31:29.162Z,100869.63
2022-09-12T15:33:59.164Z,100868.78
2022-09-12T15:36:27.075Z,100870.69
2022-09-12T15:38:55.384Z,100866.22
2022-09-12T15:41:37.442Z,100861.78
2022-09-12T15:44:06.403Z,100861.13
2022-09-12T15:46:33.354Z,100866.84
2022-09-12T15:49:00.411Z,100859.66
2022-09-12T15:51:27.794Z,100865.16
2022-09-12T15:53:54.830Z,100869.78
2022-09-12T15:56:22.788Z,100862.59
2022-09-12T15:58:58.812Z,100862.81
2022-09-12T16:01:28.116Z,100865.13
2022-09-12T16:03:55.534Z,100853.28
2022-09-12T16:06:22.690Z,100856.66
2022-09-12T16:08:49.735Z,100853.06
2022-09-12T16:11:25.467Z,100854.13
2022-09-12T16:13:53.846Z,100853.47
2022-09-12T16:16:21.363Z,100847.50
2022-09-12T16:18:48.547Z,100845.81
2022-09-12T16:21:16.286Z,100847.91
2022-09-12T16:23:45.109Z,100845.34
2022-09-12T16:26:12.489Z,100842.16
2022-09-12T16:28:40.013Z,100836.03
2022-09-12T16:31:10.524Z,100845.53
2022-09-12T16:33:39.742Z,100847.63
2022-09-12T16:36:13.958Z,100842.53
2022-09-12T16:38:51.177Z,100838.72
2022-09-12T16:41:27.216Z,100840.38
2022-09-12T16:43:54.984Z,100837.19
2022-09-12T16:46:25.837Z,100836.75
2022-09-12T16:48:57.064Z,100833.75
2022-09-12T16:51:32.793Z,100830.56
2022-09-12T16:53:59.853Z,100833.03
2022-09-12T16:56:27.593Z,100832.81
2022-09-12T16:58:55.102Z,100833.34
2022-09-12T17:01:25.317Z,100832.06
2022-09-12T17:03:58.324Z,100832.03
2022-09-12T17:06:26.403Z,100829.88
2022-09-12T17:08:56.312Z,100834.06
2022-09-12T17:11:33.273Z,100827.28
2022-09-12T17:14:06.117Z,100828.91
2022-09-12T17:16:37.552Z,100830.56
2022-09-12T17:19:06.637Z,100825.88
2022-09-12T17:21:35.573Z,100821.19
2022-09-12T17:24:03.591Z,100826.59
2022-09-12T17:26:30.980Z,100824.66
2022-09-12T17:28:58.243Z,100839.09
2022-09-12T17:31:25.433Z,100842.44
2022-09-12T17:33:58.473Z,100836.88
2022-09-12T17:36:26.640Z,100837.66
2022-09-12T17:38:54.399Z,100846.44
2022-09-12T17:41:25.712Z,100844.31
2022-09-12T17:43:57.335Z,100849.50
2022-09-12T17:46:31.785Z,100850.94
2022-09-12T17:49:01.608Z,100846.03
2022-09-12T17:51:31.176Z,100846.81
2022-09-12T17:54:09.629Z,100849.25
2022-09-12T17:56:37.857Z,100848.31
2022-09-12T17:59:06.971Z,100850.75
2022-09-12T18:01:52.760Z,100852.19
2022-09-12T18:04:20.245Z,100852.09
2022-09-12T18:06:50.286Z,100859.00
2022-09-12T18:09:22.365Z,100862.31
2022-09-12T18:11:50.332Z,100866.28
2022-09-12T18:14:19.199Z,100873.34
2022-09-12T18:16:47.089Z,100880.41
2022-09-12T18:19:15.052Z,100885.78
2022-09-12T18:21:41.946Z,100881.06
2022-09-12T18:24:10.453Z,100888.81
2022-09-12T18:26:37.820Z,100884.75
2022-09-12T18:29:04.945Z,100888.69
2022-09-12T18:31:32.336Z,100887.34
2022-09-12T18:34:01.156Z,100890.47
2022-09-12T18:36:30.034Z,100895.25
2022-09-12T18:38:59.340Z,100886.78
2022-09-12T18:41:28.960Z,100897.03
2022-09-12T18:44:02.028Z,100895.72
2022-09-12T18:46:31.259Z,100903.59
2022-09-12T18:48:59.858Z,100905.88
2022-09-12T18:51:31.587Z,100899.91
2022-09-12T18:54:06.455Z,100910.38
2022-09-12T18:56:37.583Z,100919.78
2022-09-12T18:59:07.006Z,100918.25
2022-09-12T19:01:37.347Z,100922.03
2022-09-12T19:04:06.374Z,100921.38
2022-09-12T19:06:38.053Z,100918.81
2022-09-12T19:09:09.284Z,100930.97
2022-09-12T19:11:39.359Z,100932.19
2022-09-12T19:14:07.674Z,100925.38
2022-09-12T19:16:35.139Z,100933.94
2022-09-12T19:19:03.023Z,100937.03
2022-09-12T19:21:32.271Z,100941.00
2022-09-12T19:24:03.531Z,100935.03
2022-09-12T19:26:30.934Z,100936.38
2022-09-12T19:28:57.937Z,100936.59
2022-09-12T19:31:26.125Z,100941.56
2022-09-12T19:33:53.134Z,100937.47
2022-09-12T19:39:09.518Z,100944.53
2022-09-12T19:41:37.251Z,100944.88
2022-09-12T19:44:04.857Z,100943.50
2022-09-12T19:46:32.022Z,100942.16
2022-09-12T19:48:59.028Z,100951.41
2022-09-12T19:51:26.426Z,100953.44
2022-09-12T19:53:54.016Z,100950.91
2022-09-12T19:56:21.878Z,100955.88
2022-09-12T19:58:55.742Z,100954.16
2022-09-12T20:01:30.352Z,100950.78
2022-09-12T20:03:58.920Z,100955.56
2022-09-12T20:06:27.555Z,100954.03
2022-09-12T20:08:56.208Z,100950.78
2022-09-12T20:11:25.595Z,100964.63
2022-09-12T20:13:53.764Z,100965.16
2022-09-12T20:16:25.362Z,100957.66
2022-09-12T20:18:56.509Z,100963.31
2022-09-12T20:21:31.255Z,100965.34
2022-09-12T20:24:02.938Z,100970.31
2022-09-12T20:26:30.774Z,100963.47
2022-09-12T20:28:57.842Z,100961.78
2022-09-12T20:31:24.847Z,100958.56
2022-09-12T20:33:52.296Z,100963.34
2022-09-12T20:36:21.484Z,100963.69
2022-09-12T20:38:57.019Z,100975.78
2022-09-12T20:41:25.248Z,100977.16
2022-09-12T20:43:54.137Z,100976.31
2022-09-12T20:46:22.708Z,100976.66
2022-09-12T20:48:51.542Z,100967.63
2022-09-12T20:51:20.204Z,100975.13
2022-09-12T20:53:52.757Z,100976.16
2022-09-12T20:56:21.079Z,100978.06
2022-09-12T20:58:48.292Z,100977.16
2022-09-12T21:01:16.649Z,100979.06
2022-09-12T21:03:45.656Z,100981.97
2022-09-12T21:06:17.067Z,100977.69
2022-09-12T21:08:46.352Z,100975.16
2022-09-12T21:11:15.246Z,100972.78
2022-09-12T21:13:42.559Z,100987.94
2022-09-12T21:16:16.168Z,100984.88
2022-09-12T21:18:44.166Z,100988.63
2022-09-12T21:21:13.705Z,100993.56
2022-09-12T21:23:41.533Z,100988.44
2022-09-12T21:26:08.942Z,100988.63
2022-09-12T21:28:36.107Z,100982.50
2022-09-12T21:31:03.874Z,100984.72
2022-09-12T21:33:31.434Z,100979.56
2022-09-12T21:36:03.599Z,100973.59
2022-09-12T21:38:31.571Z,100973.28
2022-09-12T21:41:14.522Z,100965.59
2022-09-12T21:43:42.176Z,100967.78
2022-09-12T21:46:10.275Z,100972.56
2022-09-12T21:48:37.951Z,100972.88
2022-09-12T21:51:05.312Z,100975.81
2022-09-12T21:53:32.465Z,100971.53
2022-09-12T21:56:08.238Z,100982.75
2022-09-12T21:58:36.554Z,100973.41
2022-09-12T22:01:05.865Z,100986.34
2022-09-12T22:03:33.080Z,100974.59
2022-09-12T22:06:03.538Z,100974.75
2022-09-12T22:08:33.741Z,100973.91
2022-09-12T22:11:04.641Z,100973.56
2022-09-12T22:13:32.366Z,100975.91
2022-09-12T22:16:02.835Z,100975.41
2022-09-12T22:18:32.780Z,100970.63
2022-09-12T22:21:12.853Z,100962.97
2022-09-12T22:23:58.239Z,100971.47
2022-09-12T22:26:27.052Z,100983.69
2022-09-12T22:28:54.549Z,100968.34
2022-09-12T22:31:28.869Z,100980.25
2022-09-12T22:33:57.236Z,100983.97
2022-09-12T22:36:28.129Z,100983.31
2022-09-12T22:38:58.933Z,100980.72
2022-09-12T22:41:26.239Z,100976.50
2022-09-12T22:43:53.130Z,100985.84
2022-09-12T22:46:20.312Z,100984.13
2022-09-12T22:48:47.874Z,100978.00
2022-09-12T22:51:18.930Z,100975.41
2022-09-12T22:53:46.089Z,100978.47
2022-09-12T22:56:13.082Z,100990.38
2022-09-12T22:58:41.912Z,100984.41
2022-09-12T23:01:10.010Z,100985.44
2022-09-12T23:03:37.492Z,100982.03
2022-09-12T23:06:05.620Z,100984.22
2022-09-12T23:08:35.212Z,100979.09
2022-09-12T23:11:13.108Z,100981.13
2022-09-12T23:13:43.774Z,100979.75
2022-09-12T23:16:17.534Z,100974.63
2022-09-12T23:18:44.474Z,100980.03
2022-09-12T23:21:14.155Z,100978.16
2022-09-12T23:23:41.340Z,100976.47
2022-09-12T23:26:17.349Z,100975.78
2022-09-12T23:28:59.505Z,100978.63
2022-09-12T23:31:31.208Z,100982.56
2022-09-12T23:34:02.199Z,100981.00
2022-09-12T23:36:30.335Z,100982.88
2022-09-12T23:38:58.436Z,100983.19
2022-09-12T23:41:25.813Z,100982.50
2022-09-12T23:43:52.799Z,100975.34
2022-09-12T23:46:21.310Z,100971.09
2022-09-12T23:48:49.393Z,100971.41
2022-09-12T23:51:16.572Z,100982.47
2022-09-12T23:53:43.672Z,100979.56
2022-09-12T23:56:11.043Z,100969.00
2022-09-12T23:58:38.042Z,100983.44
